MHLC

Details ICAO MHLC (LCE)
Name Goloson Intl
Region Honduras
Timezone America/Tegucigalpa (UTC-6.0)
Plans Departing 15
Arriving 9
Stats Elevation 49 ft / 15 m (AMSL)
Location 15.742480° -86.853036°
Runways 1
Magnetic Variation 1.129° W
Sunrise 2017-12-13 12:07:04 UTC / 2017-12-13 06:07:04 Local
Sunset 2017-12-13 23:19:13 UTC / 2017-12-13 17:19:13 Local
Advertisement - Login to hide

Runways

ID Width Length Bearing (true) Bearing (mag) Surface Threshold Offset Overrun Length
07 147 ft / 45 m 9,867 ft / 3,008 m 66.97° 68.10° Asphalt 813 ft / 248 m 0 ft / 0 m
25 147 ft / 45 m 9,867 ft / 3,008 m 246.98° 248.11° Asphalt 200 ft / 61 m 804 ft / 245 m

Map

Weather


0- 5 10 15 20 25 30 35+ Temperature / ° C

Clouds and Precipitation
Forecast for 2017-12-13 18:00 UTC. Updated 7 minutes ago

Ground ~20,000 ft ~40,000 ft Winds

METAR

MHLC 131700Z 26007KT 9999 BKN024CB 26/19 Q1020 A3012 NOSIG

TAF

Not found

Frequencies

Ground 121.90 MHz GND
Tower 118.50 MHz TWR
Warning: Do not use this data for real-world aviation or navigation. No guarantee of current accuracy is given.